Terminal Aerodrome Forecast
Issued by NWS

Home | Current Version | Previous Version | Graphics & Text | Print | Product List | Glossary On
Versions: 1 2 3 4 5 6 7 8 9 10 11 12 13 14 15 16 17 18 19 20
000
FTUS43 KBIS 231405 AAA
TAFMOT
TAF AMD
KMOT 231405Z 2314/2412 14010G18KT 5SM -TSRA BKN070CB OVC100
      TEMPO 2314/2316 2SM TSRA BKN035 OVC070CB
     FM231600 17009KT P6SM VCTS BKN060CB
     FM231800 26018G28KT P6SM FEW050
     FM240300 29015KT P6SM SKC=

USA.gov is the U.S. government's official web portal to all federal, state and local government web resources and services.